sensor_id;sensor_type;location;lat;lon;timestamp;temperature;humidity
31677;DHT22;18385;51.572;6.578;2022-12-07T00:01:09;9.00;72.10
31677;DHT22;18385;51.572;6.578;2022-12-07T00:03:35;9.00;72.10
31677;DHT22;18385;51.572;6.578;2022-12-07T00:06:02;9.00;72.20
31677;DHT22;18385;51.572;6.578;2022-12-07T00:08:30;9.00;72.20
31677;DHT22;18385;51.572;6.578;2022-12-07T00:11:04;9.00;72.20
31677;DHT22;18385;51.572;6.578;2022-12-07T00:13:31;8.90;72.10
31677;DHT22;18385;51.572;6.578;2022-12-07T00:16:01;8.90;72.10
31677;DHT22;18385;51.572;6.578;2022-12-07T00:18:27;8.90;72.20
31677;DHT22;18385;51.572;6.578;2022-12-07T00:20:52;8.80;72.20
31677;DHT22;18385;51.572;6.578;2022-12-07T00:23:18;8.80;72.30
31677;DHT22;18385;51.572;6.578;2022-12-07T00:25:44;8.90;72.40
31677;DHT22;18385;51.572;6.578;2022-12-07T00:28:09;8.90;72.50
31677;DHT22;18385;51.572;6.578;2022-12-07T00:30:37;8.90;72.40
31677;DHT22;18385;51.572;6.578;2022-12-07T00:33:02;8.90;72.30
31677;DHT22;18385;51.572;6.578;2022-12-07T00:35:28;8.90;72.30
31677;DHT22;18385;51.572;6.578;2022-12-07T00:37:54;8.80;72.20
31677;DHT22;18385;51.572;6.578;2022-12-07T00:40:19;8.80;72.40
31677;DHT22;18385;51.572;6.578;2022-12-07T00:42:45;8.80;72.40
31677;DHT22;18385;51.572;6.578;2022-12-07T00:45:10;8.70;72.30
31677;DHT22;18385;51.572;6.578;2022-12-07T00:47:36;8.70;72.50
31677;DHT22;18385;51.572;6.578;2022-12-07T00:50:02;8.60;72.50
31677;DHT22;18385;51.572;6.578;2022-12-07T00:52:28;8.70;72.60
31677;DHT22;18385;51.572;6.578;2022-12-07T00:54:53;8.70;72.70
31677;DHT22;18385;51.572;6.578;2022-12-07T00:57:19;8.60;72.60
31677;DHT22;18385;51.572;6.578;2022-12-07T00:59:45;8.60;72.60
31677;DHT22;18385;51.572;6.578;2022-12-07T01:02:10;8.60;72.60
31677;DHT22;18385;51.572;6.578;2022-12-07T01:04:36;8.60;72.60
31677;DHT22;18385;51.572;6.578;2022-12-07T01:07:02;8.60;72.50
31677;DHT22;18385;51.572;6.578;2022-12-07T01:09:27;8.50;72.60
31677;DHT22;18385;51.572;6.578;2022-12-07T01:11:53;8.50;72.60
31677;DHT22;18385;51.572;6.578;2022-12-07T01:14:18;8.50;72.70
31677;DHT22;18385;51.572;6.578;2022-12-07T01:16:44;8.40;72.70
31677;DHT22;18385;51.572;6.578;2022-12-07T01:19:10;8.50;72.80
31677;DHT22;18385;51.572;6.578;2022-12-07T01:21:35;8.50;72.90
31677;DHT22;18385;51.572;6.578;2022-12-07T01:24:08;8.50;72.80
31677;DHT22;18385;51.572;6.578;2022-12-07T01:26:34;8.50;72.80
31677;DHT22;18385;51.572;6.578;2022-12-07T01:29:00;8.50;72.80
31677;DHT22;18385;51.572;6.578;2022-12-07T01:31:27;8.40;72.80
31677;DHT22;18385;51.572;6.578;2022-12-07T01:33:55;8.40;72.80
31677;DHT22;18385;51.572;6.578;2022-12-07T01:36:28;8.30;72.60
31677;DHT22;18385;51.572;6.578;2022-12-07T01:39:00;8.30;72.80
31677;DHT22;18385;51.572;6.578;2022-12-07T01:41:29;8.20;72.80
31677;DHT22;18385;51.572;6.578;2022-12-07T01:44:24;8.10;73.00
31677;DHT22;18385;51.572;6.578;2022-12-07T01:46:58;8.10;73.10
31677;DHT22;18385;51.572;6.578;2022-12-07T01:49:33;8.00;73.10
31677;DHT22;18385;51.572;6.578;2022-12-07T01:52:10;8.00;73.30
31677;DHT22;18385;51.572;6.578;2022-12-07T01:54:39;8.10;73.30
31677;DHT22;18385;51.572;6.578;2022-12-07T01:57:06;8.10;73.30
31677;DHT22;18385;51.572;6.578;2022-12-07T01:59:33;8.10;73.20
31677;DHT22;18385;51.572;6.578;2022-12-07T02:02:01;8.00;73.10
31677;DHT22;18385;51.572;6.578;2022-12-07T02:04:27;8.10;73.30
31677;DHT22;18385;51.572;6.578;2022-12-07T02:06:54;8.10;73.30
31677;DHT22;18385;51.572;6.578;2022-12-07T02:09:21;8.00;73.10
31677;DHT22;18385;51.572;6.578;2022-12-07T02:11:46;8.00;73.20
31677;DHT22;18385;51.572;6.578;2022-12-07T02:14:12;7.90;73.10
31677;DHT22;18385;51.572;6.578;2022-12-07T02:19:45;7.80;74.00
31677;DHT22;18385;51.572;6.578;2022-12-07T02:22:47;7.70;73.30
31677;DHT22;18385;51.572;6.578;2022-12-07T02:28:34;7.60;73.50
31677;DHT22;18385;51.572;6.578;2022-12-07T02:31:19;7.50;73.60
31677;DHT22;18385;51.572;6.578;2022-12-07T02:33:50;7.40;73.80
31677;DHT22;18385;51.572;6.578;2022-12-07T02:36:43;7.40;73.60
31677;DHT22;18385;51.572;6.578;2022-12-07T02:39:18;7.30;73.70
31677;DHT22;18385;51.572;6.578;2022-12-07T02:41:51;7.30;73.80
31677;DHT22;18385;51.572;6.578;2022-12-07T02:44:20;7.30;73.80
31677;DHT22;18385;51.572;6.578;2022-12-07T02:47:03;7.30;74.00
31677;DHT22;18385;51.572;6.578;2022-12-07T02:49:30;7.40;73.80
31677;DHT22;18385;51.572;6.578;2022-12-07T02:51:56;7.40;73.70
31677;DHT22;18385;51.572;6.578;2022-12-07T02:54:22;7.30;73.50
31677;DHT22;18385;51.572;6.578;2022-12-07T02:57:01;7.30;73.60
31677;DHT22;18385;51.572;6.578;2022-12-07T03:04:43;7.20;73.80
31677;DHT22;18385;51.572;6.578;2022-12-07T03:07:24;7.10;73.90
31677;DHT22;18385;51.572;6.578;2022-12-07T03:12:39;7.00;74.00
31677;DHT22;18385;51.572;6.578;2022-12-07T03:15:14;7.00;74.00
31677;DHT22;18385;51.572;6.578;2022-12-07T03:17:42;7.00;74.00
31677;DHT22;18385;51.572;6.578;2022-12-07T03:20:11;7.00;74.20
31677;DHT22;18385;51.572;6.578;2022-12-07T03:22:40;7.00;74.10
31677;DHT22;18385;51.572;6.578;2022-12-07T03:25:11;7.00;74.10
31677;DHT22;18385;51.572;6.578;2022-12-07T03:27:43;7.10;74.20
31677;DHT22;18385;51.572;6.578;2022-12-07T03:30:15;7.10;74.20
31677;DHT22;18385;51.572;6.578;2022-12-07T03:32:54;7.30;74.20
31677;DHT22;18385;51.572;6.578;2022-12-07T03:35:26;7.40;74.00
31677;DHT22;18385;51.572;6.578;2022-12-07T03:37:57;7.40;73.80
31677;DHT22;18385;51.572;6.578;2022-12-07T03:40:59;7.50;73.70
31677;DHT22;18385;51.572;6.578;2022-12-07T03:43:28;7.50;73.60
31677;DHT22;18385;51.572;6.578;2022-12-07T03:49:23;7.60;73.60
31677;DHT22;18385;51.572;6.578;2022-12-07T03:57:33;7.40;73.50
31677;DHT22;18385;51.572;6.578;2022-12-07T04:00:00;7.40;73.80
31677;DHT22;18385;51.572;6.578;2022-12-07T04:02:38;7.40;73.60
31677;DHT22;18385;51.572;6.578;2022-12-07T04:05:05;7.30;73.60
31677;DHT22;18385;51.572;6.578;2022-12-07T04:07:31;7.20;73.60
31677;DHT22;18385;51.572;6.578;2022-12-07T04:09:57;7.20;73.80
31677;DHT22;18385;51.572;6.578;2022-12-07T04:12:23;7.20;73.90
31677;DHT22;18385;51.572;6.578;2022-12-07T04:14:48;7.20;74.10
31677;DHT22;18385;51.572;6.578;2022-12-07T04:17:14;7.20;73.90
31677;DHT22;18385;51.572;6.578;2022-12-07T04:19:40;7.20;74.00
31677;DHT22;18385;51.572;6.578;2022-12-07T04:22:06;7.20;74.00
31677;DHT22;18385;51.572;6.578;2022-12-07T04:24:32;7.30;74.10
31677;DHT22;18385;51.572;6.578;2022-12-07T04:26:58;7.40;74.00
31677;DHT22;18385;51.572;6.578;2022-12-07T04:29:24;7.40;73.80
31677;DHT22;18385;51.572;6.578;2022-12-07T04:31:50;7.40;73.80
31677;DHT22;18385;51.572;6.578;2022-12-07T04:34:16;7.50;73.90
31677;DHT22;18385;51.572;6.578;2022-12-07T04:36:43;7.50;73.80
31677;DHT22;18385;51.572;6.578;2022-12-07T04:39:24;7.60;73.80
31677;DHT22;18385;51.572;6.578;2022-12-07T04:41:50;7.60;73.60
31677;DHT22;18385;51.572;6.578;2022-12-07T04:44:16;7.50;73.50
31677;DHT22;18385;51.572;6.578;2022-12-07T04:46:43;7.50;73.70
31677;DHT22;18385;51.572;6.578;2022-12-07T04:49:09;7.50;73.60
31677;DHT22;18385;51.572;6.578;2022-12-07T04:51:34;7.50;73.60
31677;DHT22;18385;51.572;6.578;2022-12-07T04:54:00;7.50;73.50
31677;DHT22;18385;51.572;6.578;2022-12-07T04:56:26;7.50;73.70
31677;DHT22;18385;51.572;6.578;2022-12-07T04:58:53;7.50;73.70
31677;DHT22;18385;51.572;6.578;2022-12-07T05:01:20;7.50;73.70
31677;DHT22;18385;51.572;6.578;2022-12-07T05:03:46;7.50;74.50
31677;DHT22;18385;51.572;6.578;2022-12-07T05:06:13;7.50;73.70
31677;DHT22;18385;51.572;6.578;2022-12-07T05:08:38;7.50;73.70
31677;DHT22;18385;51.572;6.578;2022-12-07T05:11:05;7.50;73.70
31677;DHT22;18385;51.572;6.578;2022-12-07T05:13:32;7.50;73.60
31677;DHT22;18385;51.572;6.578;2022-12-07T05:15:58;7.60;73.80
31677;DHT22;18385;51.572;6.578;2022-12-07T05:18:24;7.60;73.60
31677;DHT22;18385;51.572;6.578;2022-12-07T05:20:52;7.60;73.50
31677;DHT22;18385;51.572;6.578;2022-12-07T05:23:18;7.50;73.50
31677;DHT22;18385;51.572;6.578;2022-12-07T05:25:44;7.50;73.50
31677;DHT22;18385;51.572;6.578;2022-12-07T05:28:10;7.50;73.60
31677;DHT22;18385;51.572;6.578;2022-12-07T05:30:36;7.50;73.70
31677;DHT22;18385;51.572;6.578;2022-12-07T05:33:02;7.50;73.70
31677;DHT22;18385;51.572;6.578;2022-12-07T05:35:28;7.50;73.60
31677;DHT22;18385;51.572;6.578;2022-12-07T05:37:54;7.40;73.40
31677;DHT22;18385;51.572;6.578;2022-12-07T05:40:20;7.40;73.50
31677;DHT22;18385;51.572;6.578;2022-12-07T05:42:46;7.40;73.60
31677;DHT22;18385;51.572;6.578;2022-12-07T05:45:12;7.30;74.30
31677;DHT22;18385;51.572;6.578;2022-12-07T05:47:37;7.30;73.50
31677;DHT22;18385;51.572;6.578;2022-12-07T05:50:05;7.20;73.50
31677;DHT22;18385;51.572;6.578;2022-12-07T05:52:31;7.10;73.80
31677;DHT22;18385;51.572;6.578;2022-12-07T05:54:57;7.10;74.00
31677;DHT22;18385;51.572;6.578;2022-12-07T05:57:22;7.10;74.20
31677;DHT22;18385;51.572;6.578;2022-12-07T05:59:48;7.10;74.10
31677;DHT22;18385;51.572;6.578;2022-12-07T06:02:15;7.10;74.00
31677;DHT22;18385;51.572;6.578;2022-12-07T06:04:43;7.10;73.90
31677;DHT22;18385;51.572;6.578;2022-12-07T06:07:11;7.20;74.00
31677;DHT22;18385;51.572;6.578;2022-12-07T06:09:36;7.20;73.90
31677;DHT22;18385;51.572;6.578;2022-12-07T06:12:03;7.20;73.80
31677;DHT22;18385;51.572;6.578;2022-12-07T06:14:47;7.20;73.80
31677;DHT22;18385;51.572;6.578;2022-12-07T06:17:13;7.20;74.00
31677;DHT22;18385;51.572;6.578;2022-12-07T06:19:39;7.20;73.90
31677;DHT22;18385;51.572;6.578;2022-12-07T06:22:06;7.30;73.90
31677;DHT22;18385;51.572;6.578;2022-12-07T06:24:33;7.40;73.90
31677;DHT22;18385;51.572;6.578;2022-12-07T06:26:58;7.40;73.70
31677;DHT22;18385;51.572;6.578;2022-12-07T06:29:24;7.30;73.50
31677;DHT22;18385;51.572;6.578;2022-12-07T06:31:50;7.30;73.50
31677;DHT22;18385;51.572;6.578;2022-12-07T06:34:18;7.20;73.60
31677;DHT22;18385;51.572;6.578;2022-12-07T06:36:45;7.20;73.70
31677;DHT22;18385;51.572;6.578;2022-12-07T06:39:11;7.20;73.70
31677;DHT22;18385;51.572;6.578;2022-12-07T06:41:37;7.10;73.50
31677;DHT22;18385;51.572;6.578;2022-12-07T06:44:04;7.00;73.50
31677;DHT22;18385;51.572;6.578;2022-12-07T06:46:30;7.00;73.80
31677;DHT22;18385;51.572;6.578;2022-12-07T06:48:56;7.00;74.00
31677;DHT22;18385;51.572;6.578;2022-12-07T06:51:22;7.00;74.00
31677;DHT22;18385;51.572;6.578;2022-12-07T06:53:47;7.00;74.00
31677;DHT22;18385;51.572;6.578;2022-12-07T06:56:13;6.90;73.70
31677;DHT22;18385;51.572;6.578;2022-12-07T06:58:39;6.80;73.70
31677;DHT22;18385;51.572;6.578;2022-12-07T07:01:13;6.70;74.10
31677;DHT22;18385;51.572;6.578;2022-12-07T07:03:39;6.70;74.10
31677;DHT22;18385;51.572;6.578;2022-12-07T07:06:05;6.70;74.30
31677;DHT22;18385;51.572;6.578;2022-12-07T07:08:31;6.80;74.40
31677;DHT22;18385;51.572;6.578;2022-12-07T07:10:57;6.80;74.30
31677;DHT22;18385;51.572;6.578;2022-12-07T07:13:23;6.90;74.40
31677;DHT22;18385;51.572;6.578;2022-12-07T07:15:48;6.90;74.10
31677;DHT22;18385;51.572;6.578;2022-12-07T07:18:14;6.80;73.90
31677;DHT22;18385;51.572;6.578;2022-12-07T07:20:40;6.80;74.10
31677;DHT22;18385;51.572;6.578;2022-12-07T07:23:06;6.70;74.20
31677;DHT22;18385;51.572;6.578;2022-12-07T07:25:32;6.70;74.20
31677;DHT22;18385;51.572;6.578;2022-12-07T07:27:58;6.70;74.10
31677;DHT22;18385;51.572;6.578;2022-12-07T07:30:24;6.70;74.30
31677;DHT22;18385;51.572;6.578;2022-12-07T07:32:49;6.70;74.40
31677;DHT22;18385;51.572;6.578;2022-12-07T07:35:15;6.70;74.30
31677;DHT22;18385;51.572;6.578;2022-12-07T07:37:41;6.60;74.20
31677;DHT22;18385;51.572;6.578;2022-12-07T07:40:08;6.60;74.20
31677;DHT22;18385;51.572;6.578;2022-12-07T07:42:34;6.60;74.30
31677;DHT22;18385;51.572;6.578;2022-12-07T07:44:59;6.50;74.40
31677;DHT22;18385;51.572;6.578;2022-12-07T07:47:25;6.50;74.40
31677;DHT22;18385;51.572;6.578;2022-12-07T07:49:52;6.50;74.40
31677;DHT22;18385;51.572;6.578;2022-12-07T07:52:18;6.60;74.40
31677;DHT22;18385;51.572;6.578;2022-12-07T07:54:43;6.60;74.40
31677;DHT22;18385;51.572;6.578;2022-12-07T07:57:09;6.60;74.40
31677;DHT22;18385;51.572;6.578;2022-12-07T07:59:35;6.60;74.50
31677;DHT22;18385;51.572;6.578;2022-12-07T08:02:01;6.60;74.40
31677;DHT22;18385;51.572;6.578;2022-12-07T08:04:26;6.70;74.60
31677;DHT22;18385;51.572;6.578;2022-12-07T08:06:52;6.70;74.60
31677;DHT22;18385;51.572;6.578;2022-12-07T08:09:18;6.80;74.50
31677;DHT22;18385;51.572;6.578;2022-12-07T08:11:46;6.80;74.40
31677;DHT22;18385;51.572;6.578;2022-12-07T08:14:11;6.90;74.50
31677;DHT22;18385;51.572;6.578;2022-12-07T08:16:37;7.00;74.20
31677;DHT22;18385;51.572;6.578;2022-12-07T08:19:04;7.00;74.10
31677;DHT22;18385;51.572;6.578;2022-12-07T08:21:30;6.90;73.90
31677;DHT22;18385;51.572;6.578;2022-12-07T08:23:57;6.90;73.90
31677;DHT22;18385;51.572;6.578;2022-12-07T08:26:23;6.80;74.20
31677;DHT22;18385;51.572;6.578;2022-12-07T08:28:48;6.80;74.30
31677;DHT22;18385;51.572;6.578;2022-12-07T08:31:17;6.80;74.20
31677;DHT22;18385;51.572;6.578;2022-12-07T08:33:45;6.80;74.30
31677;DHT22;18385;51.572;6.578;2022-12-07T08:36:12;6.80;74.40
31677;DHT22;18385;51.572;6.578;2022-12-07T08:38:38;6.80;74.30
31677;DHT22;18385;51.572;6.578;2022-12-07T08:41:05;6.80;74.30
31677;DHT22;18385;51.572;6.578;2022-12-07T08:43:31;6.80;74.30
31677;DHT22;18385;51.572;6.578;2022-12-07T08:46:11;6.90;74.40
31677;DHT22;18385;51.572;6.578;2022-12-07T08:48:43;6.90;74.30
31677;DHT22;18385;51.572;6.578;2022-12-07T08:51:09;6.90;74.20
31677;DHT22;18385;51.572;6.578;2022-12-07T08:53:37;6.90;74.20
31677;DHT22;18385;51.572;6.578;2022-12-07T08:56:04;7.00;74.40
31677;DHT22;18385;51.572;6.578;2022-12-07T08:58:30;7.10;74.50
31677;DHT22;18385;51.572;6.578;2022-12-07T09:00:56;7.20;74.30
31677;DHT22;18385;51.572;6.578;2022-12-07T09:03:21;7.20;74.10
31677;DHT22;18385;51.572;6.578;2022-12-07T09:05:47;7.20;74.10
31677;DHT22;18385;51.572;6.578;2022-12-07T09:08:13;7.20;74.00
31677;DHT22;18385;51.572;6.578;2022-12-07T09:10:38;7.10;74.00
31677;DHT22;18385;51.572;6.578;2022-12-07T09:13:04;7.20;74.20
31677;DHT22;18385;51.572;6.578;2022-12-07T09:15:30;7.20;74.30
31677;DHT22;18385;51.572;6.578;2022-12-07T09:17:56;7.30;74.30
31677;DHT22;18385;51.572;6.578;2022-12-07T09:20:22;7.40;74.20
31677;DHT22;18385;51.572;6.578;2022-12-07T09:22:48;7.60;74.10
31677;DHT22;18385;51.572;6.578;2022-12-07T09:25:14;7.70;74.00
31677;DHT22;18385;51.572;6.578;2022-12-07T09:27:40;7.80;74.00
31677;DHT22;18385;51.572;6.578;2022-12-07T09:30:06;7.90;73.90
31677;DHT22;18385;51.572;6.578;2022-12-07T09:32:32;8.00;73.70
31677;DHT22;18385;51.572;6.578;2022-12-07T09:34:58;8.00;73.60
31677;DHT22;18385;51.572;6.578;2022-12-07T09:37:24;8.00;73.60
31677;DHT22;18385;51.572;6.578;2022-12-07T09:39:49;8.00;73.70
31677;DHT22;18385;51.572;6.578;2022-12-07T09:42:41;8.10;73.70
31677;DHT22;18385;51.572;6.578;2022-12-07T09:47:45;8.30;73.90
31677;DHT22;18385;51.572;6.578;2022-12-07T09:50:23;8.40;73.80
31677;DHT22;18385;51.572;6.578;2022-12-07T09:52:50;8.40;73.40
31677;DHT22;18385;51.572;6.578;2022-12-07T09:55:28;8.50;73.50
31677;DHT22;18385;51.572;6.578;2022-12-07T09:57:54;8.60;73.40
31677;DHT22;18385;51.572;6.578;2022-12-07T10:00:22;8.80;73.60
31677;DHT22;18385;51.572;6.578;2022-12-07T10:03:01;9.00;73.40
31677;DHT22;18385;51.572;6.578;2022-12-07T10:05:34;9.10;73.00
31677;DHT22;18385;51.572;6.578;2022-12-07T10:08:02;9.20;72.80
31677;DHT22;18385;51.572;6.578;2022-12-07T10:10:33;9.20;72.70
31677;DHT22;18385;51.572;6.578;2022-12-07T10:13:02;9.20;72.60
31677;DHT22;18385;51.572;6.578;2022-12-07T10:15:54;9.30;72.90
31677;DHT22;18385;51.572;6.578;2022-12-07T10:18:40;9.50;72.80
31677;DHT22;18385;51.572;6.578;2022-12-07T10:28:56;9.80;72.20
31677;DHT22;18385;51.572;6.578;2022-12-07T10:31:23;9.80;71.80
31677;DHT22;18385;51.572;6.578;2022-12-07T10:33:55;9.60;71.90
31677;DHT22;18385;51.572;6.578;2022-12-07T10:36:36;9.50;72.10
31677;DHT22;18385;51.572;6.578;2022-12-07T10:39:12;9.50;72.30
31677;DHT22;18385;51.572;6.578;2022-12-07T10:41:58;9.40;72.40
31677;DHT22;18385;51.572;6.578;2022-12-07T10:44:29;9.50;72.50
31677;DHT22;18385;51.572;6.578;2022-12-07T10:47:08;9.50;72.40
31677;DHT22;18385;51.572;6.578;2022-12-07T11:11:44;9.80;72.20
31677;DHT22;18385;51.572;6.578;2022-12-07T11:14:39;10.00;72.30
31677;DHT22;18385;51.572;6.578;2022-12-07T11:17:10;10.10;71.80
31677;DHT22;18385;51.572;6.578;2022-12-07T11:22:43;10.40;71.70
31677;DHT22;18385;51.572;6.578;2022-12-07T11:33:22;10.60;71.30
31677;DHT22;18385;51.572;6.578;2022-12-07T11:38:26;10.60;71.10
31677;DHT22;18385;51.572;6.578;2022-12-07T11:41:02;10.50;70.90
31677;DHT22;18385;51.572;6.578;2022-12-07T11:43:56;10.50;71.10
31677;DHT22;18385;51.572;6.578;2022-12-07T11:46:27;10.50;71.00
31677;DHT22;18385;51.572;6.578;2022-12-07T11:49:15;10.60;71.10
31677;DHT22;18385;51.572;6.578;2022-12-07T11:51:42;10.60;71.00
31677;DHT22;18385;51.572;6.578;2022-12-07T11:54:19;10.50;70.90
31677;DHT22;18385;51.572;6.578;2022-12-07T11:56:48;10.50;70.80
31677;DHT22;18385;51.572;6.578;2022-12-07T11:59:36;10.50;70.80
31677;DHT22;18385;51.572;6.578;2022-12-07T12:02:26;10.60;71.00
31677;DHT22;18385;51.572;6.578;2022-12-07T12:05:21;10.60;70.90
31677;DHT22;18385;51.572;6.578;2022-12-07T12:07:52;10.70;70.80
31677;DHT22;18385;51.572;6.578;2022-12-07T12:18:49;10.50;70.50
31677;DHT22;18385;51.572;6.578;2022-12-07T12:21:22;10.50;70.70
31677;DHT22;18385;51.572;6.578;2022-12-07T12:23:57;10.50;70.60
31677;DHT22;18385;51.572;6.578;2022-12-07T12:26:26;10.50;70.40
31677;DHT22;18385;51.572;6.578;2022-12-07T12:28:59;10.60;70.60
31677;DHT22;18385;51.572;6.578;2022-12-07T12:34:03;10.60;70.30
31677;DHT22;18385;51.572;6.578;2022-12-07T12:39:18;10.60;70.50
31677;DHT22;18385;51.572;6.578;2022-12-07T12:54:25;10.60;70.20
31677;DHT22;18385;51.572;6.578;2022-12-07T13:00:16;10.40;70.00
31677;DHT22;18385;51.572;6.578;2022-12-07T13:02:52;10.40;70.20
31677;DHT22;18385;51.572;6.578;2022-12-07T13:05:23;10.30;70.20
31677;DHT22;18385;51.572;6.578;2022-12-07T13:07:54;10.30;70.30
31677;DHT22;18385;51.572;6.578;2022-12-07T13:15:53;10.20;70.30
31677;DHT22;18385;51.572;6.578;2022-12-07T13:26:26;10.20;70.30
31677;DHT22;18385;51.572;6.578;2022-12-07T13:34:38;10.30;70.10
31677;DHT22;18385;51.572;6.578;2022-12-07T13:37:32;10.40;70.10
31677;DHT22;18385;51.572;6.578;2022-12-07T13:39:59;10.30;69.90
31677;DHT22;18385;51.572;6.578;2022-12-07T13:42:34;10.30;70.00
31677;DHT22;18385;51.572;6.578;2022-12-07T13:45:17;10.30;70.00
31677;DHT22;18385;51.572;6.578;2022-12-07T13:47:53;10.40;70.20
31677;DHT22;18385;51.572;6.578;2022-12-07T13:50:29;10.50;70.20
31677;DHT22;18385;51.572;6.578;2022-12-07T13:52:58;10.50;69.90
31677;DHT22;18385;51.572;6.578;2022-12-07T13:55:24;10.40;70.00
31677;DHT22;18385;51.572;6.578;2022-12-07T13:57:52;10.30;69.90
31677;DHT22;18385;51.572;6.578;2022-12-07T14:00:20;10.20;70.10
31677;DHT22;18385;51.572;6.578;2022-12-07T14:02:58;10.30;70.60
31677;DHT22;18385;51.572;6.578;2022-12-07T14:05:30;10.50;70.80
31677;DHT22;18385;51.572;6.578;2022-12-07T14:08:04;10.50;70.50
31677;DHT22;18385;51.572;6.578;2022-12-07T14:10:35;10.40;69.80
31677;DHT22;18385;51.572;6.578;2022-12-07T14:13:03;10.50;70.50
31677;DHT22;18385;51.572;6.578;2022-12-07T14:15:31;10.60;70.20
31677;DHT22;18385;51.572;6.578;2022-12-07T14:17:58;10.40;69.50
31677;DHT22;18385;51.572;6.578;2022-12-07T14:20:39;10.10;69.40
31677;DHT22;18385;51.572;6.578;2022-12-07T14:23:23;10.00;69.60
31677;DHT22;18385;51.572;6.578;2022-12-07T14:25:52;9.80;69.80
31677;DHT22;18385;51.572;6.578;2022-12-07T14:28:33;9.60;70.10
31677;DHT22;18385;51.572;6.578;2022-12-07T14:30:59;9.50;70.10
31677;DHT22;18385;51.572;6.578;2022-12-07T14:33:26;9.60;70.80
31677;DHT22;18385;51.572;6.578;2022-12-07T14:35:53;9.80;70.80
31677;DHT22;18385;51.572;6.578;2022-12-07T14:38:21;9.80;70.30
31677;DHT22;18385;51.572;6.578;2022-12-07T14:40:48;9.70;70.00
31677;DHT22;18385;51.572;6.578;2022-12-07T14:43:16;9.50;69.80
31677;DHT22;18385;51.572;6.578;2022-12-07T14:45:42;9.30;69.80
31677;DHT22;18385;51.572;6.578;2022-12-07T14:48:13;9.20;70.10
31677;DHT22;18385;51.572;6.578;2022-12-07T14:50:50;9.10;70.20
31677;DHT22;18385;51.572;6.578;2022-12-07T14:53:27;8.90;70.20
31677;DHT22;18385;51.572;6.578;2022-12-07T14:55:54;8.90;70.40
31677;DHT22;18385;51.572;6.578;2022-12-07T14:58:19;8.80;70.50
31677;DHT22;18385;51.572;6.578;2022-12-07T15:00:46;8.80;70.60
31677;DHT22;18385;51.572;6.578;2022-12-07T15:03:13;8.80;70.60
31677;DHT22;18385;51.572;6.578;2022-12-07T15:05:39;8.80;70.60
31677;DHT22;18385;51.572;6.578;2022-12-07T15:08:05;8.70;70.50
31677;DHT22;18385;51.572;6.578;2022-12-07T15:10:33;8.60;70.40
31677;DHT22;18385;51.572;6.578;2022-12-07T15:12:59;8.60;70.60
31677;DHT22;18385;51.572;6.578;2022-12-07T15:15:46;8.60;70.60
31677;DHT22;18385;51.572;6.578;2022-12-07T15:18:12;8.50;70.60
31677;DHT22;18385;51.572;6.578;2022-12-07T15:20:38;8.50;70.60
31677;DHT22;18385;51.572;6.578;2022-12-07T15:23:04;8.40;70.60
31677;DHT22;18385;51.572;6.578;2022-12-07T15:25:30;8.40;70.70
31677;DHT22;18385;51.572;6.578;2022-12-07T15:27:55;8.40;70.80
31677;DHT22;18385;51.572;6.578;2022-12-07T15:30:21;8.30;70.70
31677;DHT22;18385;51.572;6.578;2022-12-07T15:32:52;8.40;70.80
31677;DHT22;18385;51.572;6.578;2022-12-07T15:35:19;8.40;70.80
31677;DHT22;18385;51.572;6.578;2022-12-07T15:37:45;8.40;70.80
31677;DHT22;18385;51.572;6.578;2022-12-07T15:40:12;8.40;70.70
31677;DHT22;18385;51.572;6.578;2022-12-07T15:42:38;8.40;70.70
31677;DHT22;18385;51.572;6.578;2022-12-07T15:45:05;8.40;70.80
31677;DHT22;18385;51.572;6.578;2022-12-07T15:47:34;8.50;70.80
31677;DHT22;18385;51.572;6.578;2022-12-07T15:50:02;8.60;70.80
31677;DHT22;18385;51.572;6.578;2022-12-07T15:52:28;8.60;70.70
31677;DHT22;18385;51.572;6.578;2022-12-07T15:54:54;8.60;70.70
31677;DHT22;18385;51.572;6.578;2022-12-07T15:57:19;8.60;70.50
31677;DHT22;18385;51.572;6.578;2022-12-07T15:59:45;8.70;70.70
31677;DHT22;18385;51.572;6.578;2022-12-07T16:02:12;8.70;70.60
31677;DHT22;18385;51.572;6.578;2022-12-07T16:04:38;8.70;70.50
31677;DHT22;18385;51.572;6.578;2022-12-07T16:07:04;8.70;70.40
31677;DHT22;18385;51.572;6.578;2022-12-07T16:09:31;8.80;70.40
31677;DHT22;18385;51.572;6.578;2022-12-07T16:11:56;8.80;70.40
31677;DHT22;18385;51.572;6.578;2022-12-07T16:14:22;8.80;70.40
31677;DHT22;18385;51.572;6.578;2022-12-07T16:16:48;8.80;70.30
31677;DHT22;18385;51.572;6.578;2022-12-07T16:19:14;8.80;70.20
31677;DHT22;18385;51.572;6.578;2022-12-07T16:21:40;8.80;70.20
31677;DHT22;18385;51.572;6.578;2022-12-07T16:24:06;8.90;70.30
31677;DHT22;18385;51.572;6.578;2022-12-07T16:26:32;8.90;70.20
31677;DHT22;18385;51.572;6.578;2022-12-07T16:28:58;8.90;70.10
31677;DHT22;18385;51.572;6.578;2022-12-07T16:31:25;8.80;70.10
31677;DHT22;18385;51.572;6.578;2022-12-07T16:33:57;8.80;70.10
31677;DHT22;18385;51.572;6.578;2022-12-07T16:36:24;8.90;70.10
31677;DHT22;18385;51.572;6.578;2022-12-07T16:38:52;8.80;70.00
31677;DHT22;18385;51.572;6.578;2022-12-07T16:41:18;8.90;70.00
31677;DHT22;18385;51.572;6.578;2022-12-07T16:43:44;8.80;70.00
31677;DHT22;18385;51.572;6.578;2022-12-07T16:46:09;8.80;70.00
31677;DHT22;18385;51.572;6.578;2022-12-07T16:48:37;8.80;70.10
31677;DHT22;18385;51.572;6.578;2022-12-07T16:51:05;8.70;70.10
31677;DHT22;18385;51.572;6.578;2022-12-07T16:53:31;8.80;70.20
31677;DHT22;18385;51.572;6.578;2022-12-07T16:55:57;8.70;70.10
31677;DHT22;18385;51.572;6.578;2022-12-07T16:58:23;8.70;70.10
31677;DHT22;18385;51.572;6.578;2022-12-07T17:00:48;8.70;70.10
31677;DHT22;18385;51.572;6.578;2022-12-07T17:03:14;8.60;70.10
31677;DHT22;18385;51.572;6.578;2022-12-07T17:05:43;8.60;70.20
31677;DHT22;18385;51.572;6.578;2022-12-07T17:08:10;8.60;70.20
31677;DHT22;18385;51.572;6.578;2022-12-07T17:10:38;8.60;70.10
31677;DHT22;18385;51.572;6.578;2022-12-07T17:13:05;8.60;70.10
31677;DHT22;18385;51.572;6.578;2022-12-07T17:15:59;8.60;70.10
31677;DHT22;18385;51.572;6.578;2022-12-07T17:18:27;8.50;70.10
31677;DHT22;18385;51.572;6.578;2022-12-07T17:20:53;8.50;70.10
31677;DHT22;18385;51.572;6.578;2022-12-07T17:23:18;8.50;70.60
31677;DHT22;18385;51.572;6.578;2022-12-07T17:25:45;8.50;70.20
31677;DHT22;18385;51.572;6.578;2022-12-07T17:28:11;8.50;70.10
31677;DHT22;18385;51.572;6.578;2022-12-07T17:30:37;8.40;70.10
31677;DHT22;18385;51.572;6.578;2022-12-07T17:33:03;8.50;70.10
31677;DHT22;18385;51.572;6.578;2022-12-07T17:35:29;8.50;70.10
31677;DHT22;18385;51.572;6.578;2022-12-07T17:37:54;8.50;70.00
31677;DHT22;18385;51.572;6.578;2022-12-07T17:40:21;8.50;70.00
31677;DHT22;18385;51.572;6.578;2022-12-07T17:42:47;8.50;70.00
31677;DHT22;18385;51.572;6.578;2022-12-07T17:45:16;8.50;70.00
31677;DHT22;18385;51.572;6.578;2022-12-07T17:47:42;8.50;70.00
31677;DHT22;18385;51.572;6.578;2022-12-07T17:50:09;8.40;69.90
31677;DHT22;18385;51.572;6.578;2022-12-07T17:52:38;8.40;69.90
31677;DHT22;18385;51.572;6.578;2022-12-07T17:55:22;8.30;70.00